sensor_id;sensor_type;location;lat;lon;timestamp;pressure;altitude;pressure_sealevel;temperature;humidity
13015;BME280;6573;57.696;11.950;2023-02-08T00:01:20;103496.03;;;7.72;100.00
13015;BME280;6573;57.696;11.950;2023-02-08T00:03:48;103489.66;;;7.67;100.00
13015;BME280;6573;57.696;11.950;2023-02-08T00:06:17;103452.41;;;7.57;100.00
13015;BME280;6573;57.696;11.950;2023-02-08T00:08:46;103494.38;;;7.74;100.00
13015;BME280;6573;57.696;11.950;2023-02-08T00:11:14;103495.00;;;7.87;100.00
13015;BME280;6573;57.696;11.950;2023-02-08T00:13:43;103495.34;;;7.76;100.00
13015;BME280;6573;57.696;11.950;2023-02-08T00:16:12;103500.22;;;7.69;100.00
13015;BME280;6573;57.696;11.950;2023-02-08T00:18:40;103483.78;;;7.71;100.00
13015;BME280;6573;57.696;11.950;2023-02-08T00:21:10;103501.72;;;7.81;100.00
13015;BME280;6573;57.696;11.950;2023-02-08T00:23:39;103480.75;;;7.81;100.00
13015;BME280;6573;57.696;11.950;2023-02-08T00:26:07;103491.69;;;7.73;100.00
13015;BME280;6573;57.696;11.950;2023-02-08T00:28:36;103484.06;;;7.77;100.00
13015;BME280;6573;57.696;11.950;2023-02-08T00:31:05;103491.72;;;7.91;100.00
13015;BME280;6573;57.696;11.950;2023-02-08T00:33:34;103486.78;;;7.97;100.00
13015;BME280;6573;57.696;11.950;2023-02-08T00:36:04;103484.84;;;7.93;100.00
13015;BME280;6573;57.696;11.950;2023-02-08T00:38:33;103482.41;;;7.79;100.00
13015;BME280;6573;57.696;11.950;2023-02-08T00:41:01;103477.19;;;7.79;100.00
13015;BME280;6573;57.696;11.950;2023-02-08T00:43:30;103470.44;;;7.84;100.00
13015;BME280;6573;57.696;11.950;2023-02-08T00:45:59;103470.09;;;7.95;100.00
13015;BME280;6573;57.696;11.950;2023-02-08T00:48:28;103442.47;;;7.83;100.00
13015;BME280;6573;57.696;11.950;2023-02-08T00:50:59;103456.47;;;8.02;100.00
13015;BME280;6573;57.696;11.950;2023-02-08T00:53:27;103457.88;;;7.95;100.00
13015;BME280;6573;57.696;11.950;2023-02-08T00:55:56;103416.75;;;7.76;100.00
13015;BME280;6573;57.696;11.950;2023-02-08T00:58:25;103453.22;;;7.90;100.00
13015;BME280;6573;57.696;11.950;2023-02-08T01:00:53;103446.66;;;7.98;100.00
13015;BME280;6573;57.696;11.950;2023-02-08T01:03:22;103452.88;;;8.00;100.00
13015;BME280;6573;57.696;11.950;2023-02-08T01:05:52;103453.84;;;8.02;100.00
13015;BME280;6573;57.696;11.950;2023-02-08T01:08:21;103455.66;;;8.03;100.00
13015;BME280;6573;57.696;11.950;2023-02-08T01:10:49;103455.66;;;8.03;100.00
13015;BME280;6573;57.696;11.950;2023-02-08T01:13:17;103453.31;;;8.09;100.00
13015;BME280;6573;57.696;11.950;2023-02-08T01:15:45;103457.75;;;8.10;100.00
13015;BME280;6573;57.696;11.950;2023-02-08T01:18:13;103446.34;;;8.09;100.00
13015;BME280;6573;57.696;11.950;2023-02-08T01:20:42;103432.06;;;8.03;100.00
13015;BME280;6573;57.696;11.950;2023-02-08T01:23:11;103451.16;;;8.18;100.00
13015;BME280;6573;57.696;11.950;2023-02-08T01:25:39;103438.59;;;8.11;100.00
13015;BME280;6573;57.696;11.950;2023-02-08T01:28:08;103443.50;;;8.05;100.00
13015;BME280;6573;57.696;11.950;2023-02-08T01:30:36;103440.19;;;8.09;100.00
13015;BME280;6573;57.696;11.950;2023-02-08T01:33:05;103445.44;;;8.09;100.00
13015;BME280;6573;57.696;11.950;2023-02-08T01:35:33;103423.44;;;7.88;100.00
13015;BME280;6573;57.696;11.950;2023-02-08T01:38:01;103443.97;;;7.96;100.00
13015;BME280;6573;57.696;11.950;2023-02-08T01:40:31;103441.72;;;8.04;100.00
13015;BME280;6573;57.696;11.950;2023-02-08T01:42:59;103432.56;;;7.96;100.00
13015;BME280;6573;57.696;11.950;2023-02-08T01:45:28;103430.34;;;8.03;100.00
13015;BME280;6573;57.696;11.950;2023-02-08T01:48:02;103428.25;;;7.96;100.00
13015;BME280;6573;57.696;11.950;2023-02-08T01:50:37;103439.59;;;7.97;100.00
13015;BME280;6573;57.696;11.950;2023-02-08T01:53:08;103448.00;;;8.07;100.00
13015;BME280;6573;57.696;11.950;2023-02-08T01:55:43;103451.16;;;8.18;100.00
13015;BME280;6573;57.696;11.950;2023-02-08T01:58:12;103454.59;;;8.17;100.00
13015;BME280;6573;57.696;11.950;2023-02-08T02:00:41;103465.09;;;8.17;100.00
13015;BME280;6573;57.696;11.950;2023-02-08T02:03:10;103467.66;;;8.15;100.00
13015;BME280;6573;57.696;11.950;2023-02-08T02:05:40;103467.06;;;8.21;100.00
13015;BME280;6573;57.696;11.950;2023-02-08T02:08:10;103460.16;;;8.23;100.00
13015;BME280;6573;57.696;11.950;2023-02-08T02:10:40;103460.00;;;8.20;100.00
13015;BME280;6573;57.696;11.950;2023-02-08T02:13:11;103466.78;;;8.16;100.00
13015;BME280;6573;57.696;11.950;2023-02-08T02:15:41;103472.72;;;8.12;100.00
13015;BME280;6573;57.696;11.950;2023-02-08T02:18:11;103478.72;;;8.10;100.00
13015;BME280;6573;57.696;11.950;2023-02-08T02:21:05;103474.97;;;8.05;100.00
13015;BME280;6573;57.696;11.950;2023-02-08T02:23:55;103475.13;;;8.08;100.00
13015;BME280;6573;57.696;11.950;2023-02-08T02:27:05;103466.41;;;8.09;100.00
13015;BME280;6573;57.696;11.950;2023-02-08T02:29:57;103471.53;;;8.06;100.00
13015;BME280;6573;57.696;11.950;2023-02-08T02:32:37;103482.47;;;8.15;100.00
13015;BME280;6573;57.696;11.950;2023-02-08T02:35:12;103483.75;;;8.23;100.00
13015;BME280;6573;57.696;11.950;2023-02-08T02:37:49;103483.66;;;8.21;100.00
13015;BME280;6573;57.696;11.950;2023-02-08T02:40:28;103490.34;;;8.15;100.00
13015;BME280;6573;57.696;11.950;2023-02-08T02:43:08;103475.72;;;8.20;100.00
13015;BME280;6573;57.696;11.950;2023-02-08T02:46:02;103479.91;;;8.16;100.00
13015;BME280;6573;57.696;11.950;2023-02-08T02:48:39;103485.09;;;8.15;100.00
13015;BME280;6573;57.696;11.950;2023-02-08T02:51:12;103493.28;;;8.21;100.00
13015;BME280;6573;57.696;11.950;2023-02-08T02:53:47;103487.88;;;8.18;100.00
13015;BME280;6573;57.696;11.950;2023-02-08T02:56:21;103484.13;;;8.13;100.00
13015;BME280;6573;57.696;11.950;2023-02-08T02:58:51;103499.84;;;8.13;100.00
13015;BME280;6573;57.696;11.950;2023-02-08T03:01:24;103491.09;;;8.12;100.00
13015;BME280;6573;57.696;11.950;2023-02-08T03:03:55;103502.09;;;8.05;100.00
13015;BME280;6573;57.696;11.950;2023-02-08T03:06:34;103506.75;;;8.11;100.00
13015;BME280;6573;57.696;11.950;2023-02-08T03:09:25;103513.31;;;8.03;100.00
13015;BME280;6573;57.696;11.950;2023-02-08T03:12:05;103515.41;;;8.10;100.00
13015;BME280;6573;57.696;11.950;2023-02-08T03:14:45;103517.25;;;8.11;100.00
13015;BME280;6573;57.696;11.950;2023-02-08T03:17:32;103507.09;;;8.01;100.00
13015;BME280;6573;57.696;11.950;2023-02-08T03:20:06;103508.53;;;8.12;100.00
13015;BME280;6573;57.696;11.950;2023-02-08T03:22:44;103508.84;;;8.18;100.00
13015;BME280;6573;57.696;11.950;2023-02-08T03:25:21;103510.50;;;8.16;100.00
13015;BME280;6573;57.696;11.950;2023-02-08T03:28:00;103509.13;;;8.24;100.00
13015;BME280;6573;57.696;11.950;2023-02-08T03:30:34;103511.13;;;8.28;100.00
13015;BME280;6573;57.696;11.950;2023-02-08T03:33:15;103520.13;;;8.33;100.00
13015;BME280;6573;57.696;11.950;2023-02-08T03:35:53;103509.94;;;8.39;100.00
13015;BME280;6573;57.696;11.950;2023-02-08T03:38:26;103506.06;;;8.15;100.00
13015;BME280;6573;57.696;11.950;2023-02-08T03:40:59;103514.25;;;8.21;100.00
13015;BME280;6573;57.696;11.950;2023-02-08T03:43:32;103525.22;;;8.14;100.00
13015;BME280;6573;57.696;11.950;2023-02-08T03:46:05;103527.72;;;8.11;100.00
13015;BME280;6573;57.696;11.950;2023-02-08T03:48:38;103525.91;;;8.10;100.00
13015;BME280;6573;57.696;11.950;2023-02-08T03:51:10;103525.75;;;8.07;100.00
13015;BME280;6573;57.696;11.950;2023-02-08T03:53:40;103536.09;;;8.04;100.00
13015;BME280;6573;57.696;11.950;2023-02-08T03:56:14;103524.09;;;8.09;100.00
13015;BME280;6573;57.696;11.950;2023-02-08T03:58:45;103530.56;;;8.15;100.00
13015;BME280;6573;57.696;11.950;2023-02-08T04:01:18;103531.22;;;8.11;100.00
13015;BME280;6573;57.696;11.950;2023-02-08T04:03:51;103525.47;;;8.01;100.00
13015;BME280;6573;57.696;11.950;2023-02-08T04:06:22;103532.94;;;7.93;100.00
13015;BME280;6573;57.696;11.950;2023-02-08T04:08:50;103532.47;;;8.02;100.00
13015;BME280;6573;57.696;11.950;2023-02-08T04:11:18;103532.47;;;8.02;100.00
13015;BME280;6573;57.696;11.950;2023-02-08T04:13:47;103516.09;;;8.06;100.00
13015;BME280;6573;57.696;11.950;2023-02-08T04:16:15;103511.09;;;8.10;100.00
13015;BME280;6573;57.696;11.950;2023-02-08T04:18:43;103522.78;;;8.17;100.00
13015;BME280;6573;57.696;11.950;2023-02-08T04:21:11;103521.13;;;8.19;100.00
13015;BME280;6573;57.696;11.950;2023-02-08T04:23:41;103522.47;;;8.11;100.00
13015;BME280;6573;57.696;11.950;2023-02-08T04:26:09;103527.03;;;8.15;100.00
13015;BME280;6573;57.696;11.950;2023-02-08T04:28:38;103524.09;;;8.09;100.00
13015;BME280;6573;57.696;11.950;2023-02-08T04:31:06;103530.63;;;8.17;100.00
13015;BME280;6573;57.696;11.950;2023-02-08T04:33:34;103533.25;;;8.17;100.00
13015;BME280;6573;57.696;11.950;2023-02-08T04:36:03;103525.09;;;8.11;100.00
13015;BME280;6573;57.696;11.950;2023-02-08T04:38:31;103527.84;;;8.14;100.00
13015;BME280;6573;57.696;11.950;2023-02-08T04:41:01;103529.22;;;8.06;100.00
13015;BME280;6573;57.696;11.950;2023-02-08T04:43:30;103531.00;;;8.07;100.00
13015;BME280;6573;57.696;11.950;2023-02-08T04:45:58;103529.34;;;8.09;100.00
13015;BME280;6573;57.696;11.950;2023-02-08T04:48:26;103530.94;;;8.05;100.00
13015;BME280;6573;57.696;11.950;2023-02-08T04:50:55;103524.09;;;8.09;100.00
13015;BME280;6573;57.696;11.950;2023-02-08T04:53:24;103491.72;;;7.91;100.00
13015;BME280;6573;57.696;11.950;2023-02-08T04:55:52;103530.41;;;8.12;100.00
13015;BME280;6573;57.696;11.950;2023-02-08T04:58:22;103522.00;;;8.02;100.00
13015;BME280;6573;57.696;11.950;2023-02-08T05:00:50;103523.34;;;7.94;100.00
13015;BME280;6573;57.696;11.950;2023-02-08T05:03:19;103525.13;;;7.95;100.00
13015;BME280;6573;57.696;11.950;2023-02-08T05:05:55;103503.53;;;7.82;100.00
13015;BME280;6573;57.696;11.950;2023-02-08T05:08:23;103521.53;;;7.93;100.00
13015;BME280;6573;57.696;11.950;2023-02-08T05:10:52;103513.00;;;7.97;100.00
13015;BME280;6573;57.696;11.950;2023-02-08T05:13:21;103523.06;;;8.05;100.00
13015;BME280;6573;57.696;11.950;2023-02-08T05:15:49;103518.72;;;8.06;100.00
13015;BME280;6573;57.696;11.950;2023-02-08T05:18:18;103530.69;;;8.01;100.00
13015;BME280;6573;57.696;11.950;2023-02-08T05:20:53;103528.88;;;8.00;100.00
13015;BME280;6573;57.696;11.950;2023-02-08T05:23:21;103529.78;;;8.00;100.00
13015;BME280;6573;57.696;11.950;2023-02-08T05:25:50;103534.06;;;7.98;100.00
13015;BME280;6573;57.696;11.950;2023-02-08T05:28:18;103531.59;;;8.01;100.00
13015;BME280;6573;57.696;11.950;2023-02-08T05:30:48;103527.09;;;7.99;100.00
13015;BME280;6573;57.696;11.950;2023-02-08T05:33:16;103521.88;;;7.99;100.00
13015;BME280;6573;57.696;11.950;2023-02-08T05:35:45;103516.75;;;8.02;100.00
13015;BME280;6573;57.696;11.950;2023-02-08T05:38:13;103522.16;;;8.05;100.00
13015;BME280;6573;57.696;11.950;2023-02-08T05:40:41;103514.66;;;7.95;100.00
13015;BME280;6573;57.696;11.950;2023-02-08T05:43:09;103513.75;;;7.94;100.00
13015;BME280;6573;57.696;11.950;2023-02-08T05:45:37;103520.06;;;7.98;100.00
13015;BME280;6573;57.696;11.950;2023-02-08T05:48:07;103508.03;;;7.85;100.00
13015;BME280;6573;57.696;11.950;2023-02-08T05:50:35;103508.63;;;7.79;100.00
13015;BME280;6573;57.696;11.950;2023-02-08T05:53:04;103508.22;;;7.72;100.00
13015;BME280;6573;57.696;11.950;2023-02-08T05:55:32;103506.22;;;7.66;100.00
13015;BME280;6573;57.696;11.950;2023-02-08T05:58:01;103507.81;;;7.64;100.00
13015;BME280;6573;57.696;11.950;2023-02-08T06:00:29;103502.13;;;7.55;100.00
13015;BME280;6573;57.696;11.950;2023-02-08T06:02:57;103510.66;;;7.51;100.00
13015;BME280;6573;57.696;11.950;2023-02-08T06:05:27;103495.50;;;7.46;100.00
13015;BME280;6573;57.696;11.950;2023-02-08T06:07:55;103483.38;;;7.48;100.00
13015;BME280;6573;57.696;11.950;2023-02-08T06:10:23;103484.28;;;7.48;100.00
13015;BME280;6573;57.696;11.950;2023-02-08T06:12:51;103491.47;;;7.68;100.00
13015;BME280;6573;57.696;11.950;2023-02-08T06:15:20;103483.44;;;7.65;100.00
13015;BME280;6573;57.696;11.950;2023-02-08T06:17:48;103484.75;;;7.73;100.00
13015;BME280;6573;57.696;11.950;2023-02-08T06:20:16;103480.47;;;7.75;100.00
13015;BME280;6573;57.696;11.950;2023-02-08T06:22:46;103482.25;;;7.76;100.00
13015;BME280;6573;57.696;11.950;2023-02-08T06:25:14;103489.47;;;7.80;100.00
13015;BME280;6573;57.696;11.950;2023-02-08T06:27:42;103475.84;;;7.88;100.00
13015;BME280;6573;57.696;11.950;2023-02-08T06:30:12;103489.63;;;7.83;100.00
13015;BME280;6573;57.696;11.950;2023-02-08T06:32:42;103481.09;;;7.88;100.00
13015;BME280;6573;57.696;11.950;2023-02-08T06:35:11;103488.94;;;7.88;100.00
13015;BME280;6573;57.696;11.950;2023-02-08T06:37:40;103485.38;;;7.86;100.00
13015;BME280;6573;57.696;11.950;2023-02-08T06:40:10;103493.06;;;7.82;100.00
13015;BME280;6573;57.696;11.950;2023-02-08T06:42:38;103487.88;;;7.84;100.00
13015;BME280;6573;57.696;11.950;2023-02-08T06:45:07;103475.69;;;7.84;100.00
13015;BME280;6573;57.696;11.950;2023-02-08T06:47:39;103470.16;;;7.78;100.00
13015;BME280;6573;57.696;11.950;2023-02-08T06:50:08;103471.47;;;7.70;100.00
13015;BME280;6573;57.696;11.950;2023-02-08T06:52:36;103483.59;;;7.68;100.00
13015;BME280;6573;57.696;11.950;2023-02-08T06:55:05;103478.81;;;7.77;100.00
13015;BME280;6573;57.696;11.950;2023-02-08T06:57:35;103484.22;;;7.80;100.00
13015;BME280;6573;57.696;11.950;2023-02-08T07:00:04;103480.03;;;7.84;100.00
13015;BME280;6573;57.696;11.950;2023-02-08T07:02:33;103478.81;;;7.77;100.00
13015;BME280;6573;57.696;11.950;2023-02-08T07:05:01;103489.00;;;7.71;100.00
13015;BME280;6573;57.696;11.950;2023-02-08T07:07:30;103479.28;;;7.69;100.00
13015;BME280;6573;57.696;11.950;2023-02-08T07:09:58;103500.59;;;7.76;100.00
13015;BME280;6573;57.696;11.950;2023-02-08T07:12:27;103480.88;;;7.67;100.00
13015;BME280;6573;57.696;11.950;2023-02-08T07:14:56;103491.66;;;7.55;100.00
13015;BME280;6573;57.696;11.950;2023-02-08T07:17:24;103493.91;;;7.65;100.00
13015;BME280;6573;57.696;11.950;2023-02-08T07:19:53;103497.69;;;7.70;100.00
13015;BME280;6573;57.696;11.950;2023-02-08T07:22:21;103484.91;;;7.60;100.00
13015;BME280;6573;57.696;11.950;2023-02-08T07:24:49;103501.28;;;7.72;100.00
13015;BME280;6573;57.696;11.950;2023-02-08T07:27:18;103504.88;;;7.74;100.00
13015;BME280;6573;57.696;11.950;2023-02-08T07:29:46;103495.44;;;7.78;100.00
13015;BME280;6573;57.696;11.950;2023-02-08T07:32:15;103493.63;;;7.77;100.00
13015;BME280;6573;57.696;11.950;2023-02-08T07:34:44;103506.31;;;7.86;100.00
13015;BME280;6573;57.696;11.950;2023-02-08T07:37:12;103505.34;;;7.83;100.00
13015;BME280;6573;57.696;11.950;2023-02-08T07:39:41;103501.91;;;7.84;100.00
13015;BME280;6573;57.696;11.950;2023-02-08T07:42:09;103508.09;;;7.87;100.00
13015;BME280;6573;57.696;11.950;2023-02-08T07:44:38;103500.84;;;7.81;100.00
13015;BME280;6573;57.696;11.950;2023-02-08T07:47:06;103501.09;;;7.69;100.00
13015;BME280;6573;57.696;11.950;2023-02-08T07:49:36;103499.50;;;7.71;100.00
13015;BME280;6573;57.696;11.950;2023-02-08T07:52:04;103487.94;;;7.68;100.00
13015;BME280;6573;57.696;11.950;2023-02-08T07:54:32;103501.28;;;7.72;100.00
13015;BME280;6573;57.696;11.950;2023-02-08T07:57:00;103517.16;;;7.75;100.00
13015;BME280;6573;57.696;11.950;2023-02-08T07:59:29;103504.28;;;7.80;100.00
13015;BME280;6573;57.696;11.950;2023-02-08T08:01:57;103503.22;;;7.76;100.00
13015;BME280;6573;57.696;11.950;2023-02-08T08:04:26;103499.91;;;7.63;100.00
13015;BME280;6573;57.696;11.950;2023-02-08T08:06:55;103509.13;;;7.72;100.00
13015;BME280;6573;57.696;11.950;2023-02-08T08:09:24;103506.69;;;7.75;100.00
13015;BME280;6573;57.696;11.950;2023-02-08T08:11:52;103501.78;;;7.65;100.00
13015;BME280;6573;57.696;11.950;2023-02-08T08:14:20;103512.81;;;7.76;100.00
13015;BME280;6573;57.696;11.950;2023-02-08T08:16:48;103512.09;;;7.78;100.00
13015;BME280;6573;57.696;11.950;2023-02-08T08:19:17;103510.03;;;7.73;100.00
13015;BME280;6573;57.696;11.950;2023-02-08T08:21:45;103511.13;;;7.60;100.00
13015;BME280;6573;57.696;11.950;2023-02-08T08:24:14;103502.75;;;7.67;100.00
13015;BME280;6573;57.696;11.950;2023-02-08T08:26:43;103508.00;;;7.67;100.00
13015;BME280;6573;57.696;11.950;2023-02-08T08:29:11;103513.81;;;7.62;100.00
13015;BME280;6573;57.696;11.950;2023-02-08T08:31:41;103503.31;;;7.62;100.00
13015;BME280;6573;57.696;11.950;2023-02-08T08:34:10;103512.13;;;7.46;100.00
13015;BME280;6573;57.696;11.950;2023-02-08T08:36:38;103508.78;;;7.49;100.00
13015;BME280;6573;57.696;11.950;2023-02-08T08:39:07;103496.53;;;7.49;100.00
13015;BME280;6573;57.696;11.950;2023-02-08T08:41:36;103514.41;;;7.56;100.00
13015;BME280;6573;57.696;11.950;2023-02-08T08:44:04;103516.19;;;7.57;100.00
13015;BME280;6573;57.696;11.950;2023-02-08T08:46:32;103525.03;;;7.59;100.00
13015;BME280;6573;57.696;11.950;2023-02-08T08:49:01;103515.56;;;7.61;100.00
13015;BME280;6573;57.696;11.950;2023-02-08T08:51:29;103527.00;;;7.63;100.00
13015;BME280;6573;57.696;11.950;2023-02-08T08:54:00;103518.81;;;7.73;100.00
13015;BME280;6573;57.696;11.950;2023-02-08T08:56:29;103515.66;;;7.80;100.00
13015;BME280;6573;57.696;11.950;2023-02-08T08:58:59;103519.19;;;7.81;100.00
13015;BME280;6573;57.696;11.950;2023-02-08T09:01:35;103520.59;;;7.74;100.00
13015;BME280;6573;57.696;11.950;2023-02-08T09:04:04;103526.00;;;7.77;100.00
13015;BME280;6573;57.696;11.950;2023-02-08T09:06:32;103519.78;;;7.75;100.00
13015;BME280;6573;57.696;11.950;2023-02-08T09:09:02;103523.13;;;7.73;100.00
13015;BME280;6573;57.696;11.950;2023-02-08T09:11:30;103519.38;;;7.68;100.00
13015;BME280;6573;57.696;11.950;2023-02-08T09:14:05;103515.84;;;7.67;100.00
13015;BME280;6573;57.696;11.950;2023-02-08T09:16:34;103526.66;;;7.73;100.00
13015;BME280;6573;57.696;11.950;2023-02-08T09:19:03;103533.03;;;7.78;100.00
13015;BME280;6573;57.696;11.950;2023-02-08T09:21:32;103536.19;;;7.71;100.00
13015;BME280;6573;57.696;11.950;2023-02-08T09:24:01;103544.50;;;7.64;100.00
13015;BME280;6573;57.696;11.950;2023-02-08T09:26:29;103540.75;;;7.59;100.00
13015;BME280;6573;57.696;11.950;2023-02-08T09:28:57;103510.88;;;7.56;100.00
13015;BME280;6573;57.696;11.950;2023-02-08T09:31:29;103538.13;;;7.75;100.00
13015;BME280;6573;57.696;11.950;2023-02-08T09:33:59;103537.22;;;7.75;100.00
13015;BME280;6573;57.696;11.950;2023-02-08T09:36:31;103539.78;;;7.73;100.00
13015;BME280;6573;57.696;11.950;2023-02-08T09:39:03;103543.66;;;7.81;100.00
13015;BME280;6573;57.696;11.950;2023-02-08T09:41:42;103546.78;;;7.91;100.00
13015;BME280;6573;57.696;11.950;2023-02-08T09:44:19;103545.81;;;7.89;100.00
13015;BME280;6573;57.696;11.950;2023-02-08T09:46:59;103539.91;;;7.76;100.00
13015;BME280;6573;57.696;11.950;2023-02-08T09:49:33;103536.31;;;7.74;100.00
13015;BME280;6573;57.696;11.950;2023-02-08T09:52:07;103541.06;;;7.65;100.00
13015;BME280;6573;57.696;11.950;2023-02-08T09:54:41;103537.22;;;7.75;100.00
13015;BME280;6573;57.696;11.950;2023-02-08T09:57:14;103534.66;;;7.76;100.00
13015;BME280;6573;57.696;11.950;2023-02-08T09:59:50;103536.75;;;7.66;100.00
13015;BME280;6573;57.696;11.950;2023-02-08T10:02:24;103530.75;;;7.68;100.00
13015;BME280;6573;57.696;11.950;2023-02-08T10:04:59;103525.81;;;7.74;100.00
13015;BME280;6573;57.696;11.950;2023-02-08T10:07:29;103516.69;;;7.66;100.00
13015;BME280;6573;57.696;11.950;2023-02-08T10:10:00;103510.78;;;7.70;100.00
13015;BME280;6573;57.696;11.950;2023-02-08T10:12:36;103520.28;;;7.68;100.00
13015;BME280;6573;57.696;11.950;2023-02-08T10:15:20;103525.34;;;7.65;100.00
13015;BME280;6573;57.696;11.950;2023-02-08T10:18:06;103531.75;;;7.54;100.00
13015;BME280;6573;57.696;11.950;2023-02-08T10:20:51;103534.03;;;7.64;100.00
13015;BME280;6573;57.696;11.950;2023-02-08T10:23:35;103530.75;;;7.52;100.00
13015;BME280;6573;57.696;11.950;2023-02-08T10:26:12;103531.69;;;7.69;100.00
13015;BME280;6573;57.696;11.950;2023-02-08T10:29:06;103528.66;;;7.61;100.00
13015;BME280;6573;57.696;11.950;2023-02-08T10:31:57;103530.25;;;7.59;100.00
13015;BME280;6573;57.696;11.950;2023-02-08T10:34:39;103534.47;;;7.56;100.00
13015;BME280;6573;57.696;11.950;2023-02-08T10:37:15;103532.25;;;7.63;100.00
13015;BME280;6573;57.696;11.950;2023-02-08T10:39:45;103540.75;;;7.75;100.00
13015;BME280;6573;57.696;11.950;2023-02-08T10:42:15;103536.81;;;7.83;100.00
13015;BME280;6573;57.696;11.950;2023-02-08T10:44:59;103536.94;;;7.87;100.00
13015;BME280;6573;57.696;11.950;2023-02-08T10:47:42;103527.63;;;7.75;100.00
13015;BME280;6573;57.696;11.950;2023-02-08T10:50:23;103531.06;;;7.74;100.00
13015;BME280;6573;57.696;11.950;2023-02-08T10:52:59;103517.31;;;7.78;100.00
13015;BME280;6573;57.696;11.950;2023-02-08T10:55:45;103523.47;;;7.97;100.00
13015;BME280;6573;57.696;11.950;2023-02-08T10:58:24;103523.47;;;7.97;100.00
13015;BME280;6573;57.696;11.950;2023-02-08T11:00:55;103516.22;;;7.91;100.00
13015;BME280;6573;57.696;11.950;2023-02-08T11:03:28;103516.41;;;7.78;100.00
13015;BME280;6573;57.696;11.950;2023-02-08T11:06:05;103510.44;;;7.80;100.00
13015;BME280;6573;57.696;11.950;2023-02-08T11:08:54;103509.13;;;7.89;100.00
13015;BME280;6573;57.696;11.950;2023-02-08T11:11:25;103499.59;;;7.91;100.00
13015;BME280;6573;57.696;11.950;2023-02-08T11:14:06;103504.78;;;8.07;100.00
13015;BME280;6573;57.696;11.950;2023-02-08T11:16:35;103497.75;;;8.06;100.00
13015;BME280;6573;57.696;11.950;2023-02-08T11:19:20;103500.72;;;7.96;100.00
13015;BME280;6573;57.696;11.950;2023-02-08T11:21:51;103506.75;;;8.11;100.00
13015;BME280;6573;57.696;11.950;2023-02-08T11:24:26;103504.78;;;8.07;100.00
13015;BME280;6573;57.696;11.950;2023-02-08T11:26:55;103495.78;;;8.02;100.00
13015;BME280;6573;57.696;11.950;2023-02-08T11:29:37;103496.09;;;8.08;100.00
13015;BME280;6573;57.696;11.950;2023-02-08T11:32:15;103500.13;;;8.19;100.00
13015;BME280;6573;57.696;11.950;2023-02-08T11:35:10;103487.09;;;8.03;100.00
13015;BME280;6573;57.696;11.950;2023-02-08T11:37:47;103492.78;;;8.12;100.00
13015;BME280;6573;57.696;11.950;2023-02-08T11:40:19;103496.56;;;8.17;100.00
13015;BME280;6573;57.696;11.950;2023-02-08T11:42:55;103498.03;;;8.12;100.00
13015;BME280;6573;57.696;11.950;2023-02-08T11:45:27;103481.78;;;8.19;100.00
13015;BME280;6573;57.696;11.950;2023-02-08T11:47:58;103486.53;;;8.26;100.00
13015;BME280;6573;57.696;11.950;2023-02-08T11:50:31;103485.78;;;8.11;100.00
13015;BME280;6573;57.696;11.950;2023-02-08T11:53:03;103480.38;;;8.08;100.00
13015;BME280;6573;57.696;11.950;2023-02-08T11:55:33;103480.06;;;8.02;100.00
13015;BME280;6573;57.696;11.950;2023-02-08T11:58:03;103473.63;;;8.13;100.00
13015;BME280;6573;57.696;11.950;2023-02-08T12:00:34;103470.03;;;8.11;100.00
13015;BME280;6573;57.696;11.950;2023-02-08T12:03:05;103473.47;;;8.10;100.00
13015;BME280;6573;57.696;11.950;2023-02-08T12:05:43;103468.53;;;7.98;100.00
13015;BME280;6573;57.696;11.950;2023-02-08T12:08:21;103459.84;;;8.17;100.00
13015;BME280;6573;57.696;11.950;2023-02-08T12:11:14;103454.44;;;8.14;100.00
13015;BME280;6573;57.696;11.950;2023-02-08T12:14:00;103414.50;;;8.02;100.00
13015;BME280;6573;57.696;11.950;2023-02-08T12:16:48;103442.16;;;8.13;100.00
13015;BME280;6573;57.696;11.950;2023-02-08T12:22:29;103432.72;;;8.16;100.00
13015;BME280;6573;57.696;11.950;2023-02-08T12:25:09;103423.28;;;8.20;100.00
13015;BME280;6573;57.696;11.950;2023-02-08T12:27:48;103420.16;;;8.27;100.00
13015;BME280;6573;57.696;11.950;2023-02-08T12:30:27;103403.81;;;8.15;100.00
13015;BME280;6573;57.696;11.950;2023-02-08T12:33:23;103413.59;;;8.19;100.00
13015;BME280;6573;57.696;11.950;2023-02-08T12:36:18;103408.84;;;8.28;100.00
13015;BME280;6573;57.696;11.950;2023-02-08T12:39:04;103394.59;;;8.23;100.00
13015;BME280;6573;57.696;11.950;2023-02-08T12:42:03;103384.75;;;8.19;100.00
13015;BME280;6573;57.696;11.950;2023-02-08T12:44:45;103394.81;;;8.10;100.00
13015;BME280;6573;57.696;11.950;2023-02-08T12:47:31;103395.25;;;8.19;100.00
13015;BME280;6573;57.696;11.950;2023-02-08T12:50:13;103390.00;;;8.19;100.00
13015;BME280;6573;57.696;11.950;2023-02-08T12:52:48;103374.28;;;8.19;100.00
13015;BME280;6573;57.696;11.950;2023-02-08T12:55:22;103360.50;;;8.23;100.00
13015;BME280;6573;57.696;11.950;2023-02-08T12:57:58;103372.19;;;8.12;100.00
13015;BME280;6573;57.696;11.950;2023-02-08T13:00:29;103378.66;;;8.01;100.00
13015;BME280;6573;57.696;11.950;2023-02-08T13:03:05;103381.66;;;7.91;100.00
13015;BME280;6573;57.696;11.950;2023-02-08T13:05:38;103371.16;;;7.91;100.00
13015;BME280;6573;57.696;11.950;2023-02-08T13:08:29;103373.41;;;8.01;100.00
13015;BME280;6573;57.696;11.950;2023-02-08T13:11:02;103357.09;;;8.06;100.00
13015;BME280;6573;57.696;11.950;2023-02-08T13:13:56;103345.50;;;8.01;100.00
13015;BME280;6573;57.696;11.950;2023-02-08T13:16:29;103343.75;;;7.84;100.00
13015;BME280;6573;57.696;11.950;2023-02-08T13:19:22;103349.00;;;7.84;100.00
13015;BME280;6573;57.696;11.950;2023-02-08T13:21:52;103347.66;;;7.74;100.00